createdAt,value
2023-05-17T00:00:12.893Z,33.00
2023-05-17T00:02:41.555Z,32.25
2023-05-17T00:05:12.679Z,37.25
2023-05-17T00:07:41.269Z,33.25
2023-05-17T00:10:10.074Z,33.25
2023-05-17T00:12:38.533Z,32.75
2023-05-17T00:15:07.597Z,35.50
2023-05-17T00:17:38.417Z,34.75
2023-05-17T00:20:07.718Z,31.00
2023-05-17T00:22:36.332Z,29.75
2023-05-17T00:25:05.827Z,30.00
2023-05-17T00:27:34.241Z,27.50
2023-05-17T00:30:02.662Z,27.50
2023-05-17T00:32:31.094Z,32.75
2023-05-17T00:35:00.058Z,34.75
2023-05-17T00:37:28.629Z,28.00
2023-05-17T00:39:57.081Z,28.00
2023-05-17T00:42:25.611Z,30.75
2023-05-17T00:44:54.065Z,27.00
2023-05-17T00:47:22.572Z,29.50
2023-05-17T00:49:51.093Z,30.75
2023-05-17T00:52:20.280Z,33.00
2023-05-17T00:54:48.829Z,28.50
2023-05-17T00:57:17.762Z,27.00
2023-05-17T00:59:46.884Z,28.00
2023-05-17T01:02:15.337Z,28.00
2023-05-17T01:04:43.890Z,28.00
2023-05-17T01:07:12.664Z,26.50
2023-05-17T01:09:41.265Z,28.75
2023-05-17T01:12:40.071Z,30.50
2023-05-17T01:15:25.216Z,28.00
2023-05-17T01:18:12.730Z,28.50
2023-05-17T01:20:46.681Z,29.00
2023-05-17T01:23:33.412Z,25.75
2023-05-17T01:26:36.582Z,26.00
2023-05-17T01:29:10.128Z,25.25
2023-05-17T01:31:39.484Z,25.50
2023-05-17T01:34:11.438Z,27.25
2023-05-17T01:36:39.917Z,27.25
2023-05-17T01:39:09.627Z,23.75
2023-05-17T01:41:48.391Z,23.75
2023-05-17T01:44:27.398Z,22.75
2023-05-17T01:47:07.310Z,22.75
2023-05-17T01:49:40.347Z,29.50
2023-05-17T01:52:20.649Z,22.75
2023-05-17T01:54:52.136Z,27.00
2023-05-17T01:57:26.805Z,24.00
2023-05-17T02:00:01.014Z,21.50
2023-05-17T02:02:30.238Z,24.00
2023-05-17T02:04:59.491Z,20.75
2023-05-17T02:07:28.108Z,22.25
2023-05-17T02:09:56.586Z,23.00
2023-05-17T02:12:26.294Z,28.25
2023-05-17T02:14:54.725Z,22.50
2023-05-17T02:17:23.211Z,21.25
2023-05-17T02:19:51.740Z,27.50
2023-05-17T02:22:20.152Z,25.50
2023-05-17T02:24:49.857Z,25.75
2023-05-17T02:27:18.358Z,24.25
2023-05-17T02:29:46.793Z,25.50
2023-05-17T02:32:15.252Z,26.00
2023-05-17T02:34:43.676Z,22.00
2023-05-17T02:37:12.101Z,22.00
2023-05-17T02:39:40.648Z,22.00
2023-05-17T02:42:09.267Z,23.50
2023-05-17T02:44:37.673Z,28.25
2023-05-17T02:47:06.422Z,21.25
2023-05-17T02:49:34.914Z,23.50
2023-05-17T02:52:05.202Z,19.00
2023-05-17T02:54:33.678Z,21.50
2023-05-17T02:57:02.310Z,21.50
2023-05-17T02:59:30.747Z,25.75
2023-05-17T03:01:59.182Z,22.50
2023-05-17T03:04:27.736Z,23.50
2023-05-17T03:06:56.896Z,18.00
2023-05-17T03:09:25.325Z,20.25
2023-05-17T03:11:53.786Z,23.75
2023-05-17T03:14:22.463Z,23.75
2023-05-17T03:16:50.902Z,22.50
2023-05-17T03:19:19.517Z,20.50
2023-05-17T03:21:48.087Z,27.25
2023-05-17T03:24:16.660Z,26.00
2023-05-17T03:26:45.203Z,21.25
2023-05-17T03:29:13.640Z,22.75
2023-05-17T03:31:42.218Z,20.25
2023-05-17T03:34:10.697Z,22.75
2023-05-17T03:36:41.484Z,20.75
2023-05-17T03:39:09.990Z,18.75
2023-05-17T03:41:38.568Z,21.50
2023-05-17T03:44:07.172Z,21.50
2023-05-17T03:46:35.628Z,17.75
2023-05-17T03:49:04.509Z,22.50
2023-05-17T03:51:32.950Z,20.75
2023-05-17T03:54:02.550Z,19.00
2023-05-17T03:56:31.076Z,18.50
2023-05-17T03:58:59.636Z,18.00
2023-05-17T04:01:28.332Z,20.25
2023-05-17T04:03:56.965Z,20.00
2023-05-17T04:06:25.809Z,18.00
2023-05-17T04:08:55.980Z,19.50
2023-05-17T04:11:27.563Z,18.25
2023-05-17T04:13:57.822Z,18.50
2023-05-17T04:16:26.303Z,18.25
2023-05-17T04:18:55.081Z,18.75
2023-05-17T04:21:23.719Z,21.25
2023-05-17T04:23:52.537Z,16.50
2023-05-17T04:26:21.621Z,16.25
2023-05-17T04:28:50.055Z,20.00
2023-05-17T04:31:18.999Z,20.00
2023-05-17T04:33:47.891Z,18.50
2023-05-17T04:36:16.883Z,16.25
2023-05-17T04:38:45.337Z,19.00
2023-05-17T04:41:13.780Z,17.50
2023-05-17T04:43:43.211Z,18.25
2023-05-17T04:46:11.712Z,19.00
2023-05-17T04:48:40.322Z,13.25
2023-05-17T04:51:08.818Z,13.50
2023-05-17T04:53:37.310Z,16.50
2023-05-17T04:56:05.956Z,15.75
2023-05-17T04:58:34.566Z,19.50
2023-05-17T05:01:03.008Z,19.75
2023-05-17T05:03:31.470Z,17.50
2023-05-17T05:05:59.935Z,19.25
2023-05-17T05:08:28.355Z,19.75
2023-05-17T05:10:56.968Z,17.25
2023-05-17T05:13:25.459Z,17.50
2023-05-17T05:15:53.935Z,17.50
2023-05-17T05:18:22.705Z,17.25
2023-05-17T05:20:51.320Z,20.25
2023-05-17T05:23:19.767Z,16.75
2023-05-17T05:25:48.588Z,21.75
2023-05-17T05:28:17.153Z,17.50
2023-05-17T05:30:45.728Z,16.00
2023-05-17T05:33:14.357Z,18.00
2023-05-17T05:35:42.879Z,16.00
2023-05-17T05:38:11.372Z,15.00
2023-05-17T05:40:39.807Z,15.75
2023-05-17T05:43:08.223Z,16.75
2023-05-17T05:45:36.791Z,19.25
2023-05-17T05:48:06.507Z,22.25
2023-05-17T05:50:36.232Z,17.00
2023-05-17T05:53:17.482Z,17.50
2023-05-17T05:55:47.876Z,17.50
2023-05-17T05:58:16.781Z,21.25
2023-05-17T06:00:45.201Z,19.50
2023-05-17T06:03:13.667Z,18.75
2023-05-17T06:05:42.330Z,18.25
2023-05-17T06:08:10.897Z,18.50
2023-05-17T06:10:39.454Z,15.50
2023-05-17T06:13:08.298Z,21.50
2023-05-17T06:15:37.867Z,19.75
2023-05-17T06:18:06.636Z,21.25
2023-05-17T06:20:35.194Z,19.00
2023-05-17T06:23:06.084Z,22.75
2023-05-17T06:25:34.547Z,19.75
2023-05-17T06:28:04.658Z,18.00
2023-05-17T06:30:33.275Z,19.25
2023-05-17T06:33:01.901Z,20.75
2023-05-17T06:35:37.519Z,18.50
2023-05-17T06:38:12.768Z,18.25
2023-05-17T06:40:41.341Z,18.75
2023-05-17T06:43:09.753Z,17.75
2023-05-17T06:45:38.167Z,16.25
2023-05-17T06:48:06.871Z,22.25
2023-05-17T06:50:35.413Z,17.75
2023-05-17T06:53:04.157Z,17.50
2023-05-17T06:55:32.598Z,16.00
2023-05-17T06:58:01.514Z,18.50
2023-05-17T07:00:30.517Z,19.25
2023-05-17T07:02:59.391Z,19.00
2023-05-17T07:05:30.370Z,14.50
2023-05-17T07:08:00.777Z,16.00
2023-05-17T07:10:29.243Z,17.25
2023-05-17T07:12:57.736Z,14.50
2023-05-17T07:15:26.343Z,18.00
2023-05-17T07:17:55.008Z,17.50
2023-05-17T07:20:23.578Z,17.50
2023-05-17T07:22:52.022Z,19.75
2023-05-17T07:25:22.479Z,20.75
2023-05-17T07:27:51.008Z,18.75
2023-05-17T07:30:19.657Z,16.25
2023-05-17T07:32:48.150Z,20.50
2023-05-17T07:35:17.493Z,15.50
2023-05-17T07:37:47.177Z,19.50
2023-05-17T07:40:15.673Z,16.50
2023-05-17T07:42:44.179Z,17.00
2023-05-17T07:45:15.464Z,18.75
2023-05-17T07:47:44.085Z,17.25
2023-05-17T07:50:13.264Z,20.50
2023-05-17T07:52:41.816Z,16.00
2023-05-17T07:55:11.000Z,19.25
2023-05-17T07:57:39.450Z,20.50
2023-05-17T08:00:09.795Z,18.75
2023-05-17T08:02:38.336Z,21.50
2023-05-17T08:05:07.819Z,15.75
2023-05-17T08:07:36.301Z,19.50
2023-05-17T08:10:05.480Z,23.75
2023-05-17T08:12:34.048Z,16.00
2023-05-17T08:15:02.593Z,19.75
2023-05-17T08:17:31.106Z,20.00
2023-05-17T08:19:59.594Z,19.75
2023-05-17T08:22:28.533Z,22.25
2023-05-17T08:24:58.486Z,17.25
2023-05-17T08:27:28.094Z,19.50
2023-05-17T08:29:58.711Z,16.50
2023-05-17T08:32:27.309Z,18.75
2023-05-17T08:34:56.822Z,16.25
2023-05-17T08:37:25.998Z,17.75
2023-05-17T08:39:54.484Z,16.50
2023-05-17T08:42:27.712Z,17.00
2023-05-17T08:44:57.455Z,21.25
2023-05-17T08:47:35.183Z,17.00
2023-05-17T08:50:06.373Z,15.50
2023-05-17T08:52:36.650Z,16.75
2023-05-17T08:55:07.161Z,19.25
2023-05-17T08:57:40.246Z,16.00
2023-05-17T09:00:16.379Z,18.75
2023-05-17T09:02:45.021Z,16.50
2023-05-17T09:05:14.987Z,15.75
2023-05-17T09:07:43.977Z,18.00
2023-05-17T09:10:14.576Z,15.00
2023-05-17T09:12:43.484Z,18.75
2023-05-17T09:15:25.013Z,16.50
2023-05-17T09:17:55.523Z,15.00
2023-05-17T09:20:25.827Z,15.50
2023-05-17T09:22:57.020Z,16.00
2023-05-17T09:25:30.299Z,13.25
2023-05-17T09:28:03.629Z,17.25
2023-05-17T09:30:34.314Z,17.25
2023-05-17T09:33:11.455Z,15.00
2023-05-17T09:35:40.887Z,17.75
2023-05-17T09:38:14.072Z,15.00
2023-05-17T09:40:46.799Z,15.25
2023-05-17T09:43:16.143Z,14.00
2023-05-17T09:45:44.602Z,17.75
2023-05-17T09:48:13.193Z,17.00
2023-05-17T09:50:53.111Z,18.25
2023-05-17T09:53:33.198Z,16.25
2023-05-17T09:56:04.111Z,15.50
2023-05-17T09:58:38.894Z,19.25
2023-05-17T10:01:09.551Z,15.75
2023-05-17T10:03:39.350Z,17.50
2023-05-17T10:06:09.938Z,16.75
2023-05-17T10:08:46.190Z,16.00
2023-05-17T10:11:14.696Z,21.75
2023-05-17T10:14:06.984Z,21.75
2023-05-17T10:16:35.892Z,21.25
2023-05-17T10:19:05.139Z,19.25
2023-05-17T10:21:34.684Z,14.25
2023-05-17T10:24:07.808Z,13.50
2023-05-17T10:26:37.470Z,15.50
2023-05-17T10:29:07.474Z,20.25
2023-05-17T10:31:37.469Z,19.00
2023-05-17T10:34:07.527Z,14.25
2023-05-17T10:36:36.054Z,19.50
2023-05-17T10:39:08.960Z,21.25
2023-05-17T10:41:41.952Z,22.75
2023-05-17T10:44:14.984Z,23.75
2023-05-17T10:46:59.538Z,22.00
2023-05-17T10:49:32.801Z,20.75
2023-05-17T10:52:17.786Z,29.75
2023-05-17T10:54:51.084Z,17.25
2023-05-17T10:57:49.108Z,22.75
2023-05-17T11:00:22.115Z,18.50
2023-05-17T11:02:51.535Z,21.50
2023-05-17T11:05:28.359Z,17.75
2023-05-17T11:08:16.490Z,19.50
2023-05-17T11:11:12.553Z,21.75
2023-05-17T11:14:16.037Z,21.50
2023-05-17T11:16:45.132Z,21.50
2023-05-17T11:19:13.654Z,17.25
2023-05-17T11:21:49.705Z,15.00
2023-05-17T11:24:27.786Z,17.25
2023-05-17T11:26:59.238Z,15.75
2023-05-17T11:29:32.084Z,22.75
2023-05-17T11:32:00.682Z,16.75
2023-05-17T11:34:29.207Z,16.50
2023-05-17T11:36:57.966Z,20.75
2023-05-17T11:39:27.923Z,20.75
2023-05-17T11:41:57.623Z,22.50
2023-05-17T11:44:26.757Z,19.50
2023-05-17T11:47:04.219Z,22.75
2023-05-17T11:49:36.302Z,21.25
2023-05-17T11:52:07.481Z,20.75
2023-05-17T11:54:41.329Z,23.00
2023-05-17T11:57:10.794Z,21.00
2023-05-17T11:59:40.943Z,19.75
2023-05-17T12:02:09.445Z,23.75
2023-05-17T12:04:40.037Z,24.75
2023-05-17T12:07:12.169Z,25.75
2023-05-17T12:09:41.506Z,25.25
2023-05-17T12:12:10.577Z,22.50
2023-05-17T12:14:39.188Z,19.75
2023-05-17T12:17:10.686Z,23.00
2023-05-17T12:19:39.337Z,21.75
2023-05-17T12:22:15.079Z,24.50
2023-05-17T12:24:44.449Z,22.25
2023-05-17T12:27:13.038Z,20.75
2023-05-17T12:29:41.573Z,26.25
2023-05-17T12:32:12.081Z,21.00
2023-05-17T12:34:41.696Z,24.75
2023-05-17T12:37:11.430Z,25.75
2023-05-17T12:39:40.579Z,26.25
2023-05-17T12:42:10.273Z,25.75
2023-05-17T12:44:38.858Z,28.00
2023-05-17T12:47:07.578Z,29.00
2023-05-17T12:49:40.361Z,28.25
2023-05-17T12:52:08.996Z,26.75
2023-05-17T12:54:37.813Z,24.25
2023-05-17T12:57:16.150Z,25.75
2023-05-17T12:59:49.330Z,25.50
2023-05-17T13:02:18.676Z,25.50
2023-05-17T13:04:47.845Z,25.75
2023-05-17T13:07:26.009Z,28.00
2023-05-17T13:09:54.631Z,31.00
2023-05-17T13:12:26.609Z,33.50
2023-05-17T13:14:58.212Z,38.25
2023-05-17T13:17:28.821Z,33.50
2023-05-17T13:19:58.538Z,32.75
2023-05-17T13:22:27.571Z,28.75
2023-05-17T13:24:56.535Z,35.75
2023-05-17T13:27:24.984Z,32.50
2023-05-17T13:29:53.502Z,35.25
2023-05-17T13:32:23.049Z,39.50
2023-05-17T13:34:55.783Z,40.50
2023-05-17T13:37:24.285Z,43.00
2023-05-17T13:39:55.696Z,40.50
2023-05-17T13:42:24.789Z,40.75
2023-05-17T13:44:53.301Z,35.25
2023-05-17T13:47:22.249Z,40.25
2023-05-17T13:49:51.063Z,35.75
2023-05-17T13:52:19.906Z,35.50
2023-05-17T13:54:48.473Z,34.00
2023-05-17T13:57:17.044Z,32.50
2023-05-17T13:59:46.047Z,37.25
2023-05-17T14:02:14.636Z,33.00
2023-05-17T14:04:43.173Z,35.25
2023-05-17T14:07:11.655Z,36.00
2023-05-17T14:09:40.770Z,26.75
2023-05-17T14:12:09.387Z,37.50
2023-05-17T14:14:37.876Z,26.75
2023-05-17T14:17:06.469Z,49.25
2023-05-17T14:19:35.094Z,27.25
2023-05-17T14:22:03.674Z,25.25
2023-05-17T14:24:33.161Z,28.75
2023-05-17T14:27:03.498Z,25.00
2023-05-17T14:29:33.270Z,30.00
2023-05-17T14:32:01.759Z,25.00
2023-05-17T14:34:31.945Z,24.00
2023-05-17T14:37:00.417Z,29.25
2023-05-17T14:39:28.831Z,28.75
2023-05-17T14:41:57.763Z,26.50
2023-05-17T14:44:27.987Z,31.00
2023-05-17T14:46:56.478Z,24.50
2023-05-17T14:49:25.006Z,26.25
2023-05-17T14:51:53.586Z,24.00
2023-05-17T14:54:22.872Z,26.75
2023-05-17T14:56:51.444Z,25.50
2023-05-17T14:59:20.490Z,30.25
2023-05-17T15:01:48.999Z,22.50
2023-05-17T15:04:17.813Z,26.50
2023-05-17T15:06:46.807Z,25.25
2023-05-17T15:09:18.656Z,28.00
2023-05-17T15:11:47.207Z,27.50
2023-05-17T15:14:20.019Z,24.75
2023-05-17T15:16:49.642Z,27.50
2023-05-17T15:19:18.366Z,30.75
2023-05-17T15:21:47.595Z,31.00
2023-05-17T15:24:17.762Z,29.00
2023-05-17T15:26:46.601Z,28.50
2023-05-17T15:29:15.176Z,22.75
2023-05-17T15:31:43.621Z,29.75
2023-05-17T15:34:12.528Z,29.00
2023-05-17T15:36:41.174Z,35.25
2023-05-17T15:39:09.706Z,35.75
2023-05-17T15:41:38.457Z,27.25
2023-05-17T15:44:07.187Z,24.75
2023-05-17T15:46:35.703Z,29.50
2023-05-17T15:49:04.324Z,24.75
2023-05-17T15:51:32.841Z,24.00
2023-05-17T15:54:01.402Z,25.00
2023-05-17T15:56:30.052Z,28.75
2023-05-17T15:58:59.906Z,31.00
2023-05-17T16:01:30.338Z,27.00
2023-05-17T16:03:58.906Z,28.50
2023-05-17T16:06:27.614Z,30.50
2023-05-17T16:08:56.265Z,27.00
2023-05-17T16:11:25.601Z,29.50
2023-05-17T16:13:54.066Z,26.25
2023-05-17T16:16:22.545Z,27.00
2023-05-17T16:18:51.058Z,29.75
2023-05-17T16:21:19.633Z,36.75
2023-05-17T16:23:48.152Z,27.50
2023-05-17T16:26:16.719Z,28.75
2023-05-17T16:28:45.210Z,30.75
2023-05-17T16:31:13.894Z,34.00
2023-05-17T16:33:43.402Z,30.50
2023-05-17T16:36:13.334Z,29.00
2023-05-17T16:38:41.833Z,29.25
2023-05-17T16:41:10.419Z,27.75
2023-05-17T16:43:38.830Z,32.75
2023-05-17T16:46:07.349Z,25.75
2023-05-17T16:48:35.776Z,24.75
2023-05-17T16:51:04.244Z,28.25
2023-05-17T16:53:32.956Z,25.75
2023-05-17T16:56:01.732Z,28.25
2023-05-17T16:58:30.651Z,25.75
2023-05-17T17:00:59.256Z,33.50
2023-05-17T17:03:27.780Z,24.50
2023-05-17T17:05:56.317Z,25.75
2023-05-17T17:08:24.780Z,24.50
2023-05-17T17:10:53.185Z,25.75
2023-05-17T17:13:21.592Z,25.50
2023-05-17T17:15:52.013Z,27.50
2023-05-17T17:18:20.722Z,32.50
2023-05-17T17:20:49.192Z,24.75
2023-05-17T17:23:17.832Z,25.50
2023-05-17T17:25:46.450Z,27.75
2023-05-17T17:28:14.925Z,28.50
2023-05-17T17:30:43.500Z,24.50
2023-05-17T17:33:12.278Z,25.75
2023-05-17T17:35:40.812Z,22.00
2023-05-17T17:38:14.911Z,26.75
2023-05-17T17:40:43.394Z,30.50
2023-05-17T17:43:11.925Z,28.00
2023-05-17T17:45:40.547Z,26.75
2023-05-17T17:48:09.084Z,23.50
2023-05-17T17:50:37.682Z,26.00
2023-05-17T17:53:06.113Z,21.00
2023-05-17T17:55:34.815Z,27.25
2023-05-17T17:58:03.261Z,26.25
2023-05-17T18:00:31.997Z,28.00
2023-05-17T18:03:00.847Z,27.75
2023-05-17T18:05:29.460Z,30.75
2023-05-17T18:07:57.943Z,26.00
2023-05-17T18:10:26.434Z,29.25
2023-05-17T18:12:55.122Z,27.50
2023-05-17T18:15:23.625Z,34.75
2023-05-17T18:17:53.009Z,27.50
2023-05-17T18:20:23.699Z,27.00
2023-05-17T18:22:52.129Z,27.25
2023-05-17T18:25:21.439Z,27.50
2023-05-17T18:27:49.936Z,29.50
2023-05-17T18:30:19.583Z,27.50
2023-05-17T18:32:48.258Z,29.00
2023-05-17T18:35:17.005Z,24.25
2023-05-17T18:37:45.491Z,25.50
2023-05-17T18:40:16.110Z,27.00
2023-05-17T18:42:44.668Z,26.75
2023-05-17T18:45:13.168Z,26.00
2023-05-17T18:47:41.765Z,26.00
2023-05-17T18:50:11.117Z,30.25
2023-05-17T18:52:40.036Z,26.50
2023-05-17T18:55:08.702Z,25.50
2023-05-17T18:57:37.441Z,30.25
2023-05-17T19:00:06.321Z,24.75
2023-05-17T19:02:34.772Z,27.50
2023-05-17T19:05:03.300Z,27.75
2023-05-17T19:07:31.815Z,30.25
2023-05-17T19:10:00.336Z,29.25
2023-05-17T19:12:28.883Z,30.00
2023-05-17T19:14:57.439Z,28.50
2023-05-17T19:17:26.064Z,26.25
2023-05-17T19:19:54.553Z,31.00
2023-05-17T19:22:22.992Z,26.75
2023-05-17T19:24:51.778Z,31.25
2023-05-17T19:27:20.770Z,29.75
2023-05-17T19:29:49.944Z,32.25
2023-05-17T19:32:18.424Z,29.00
2023-05-17T19:34:47.097Z,32.50
2023-05-17T19:37:15.561Z,29.50
2023-05-17T19:39:43.996Z,30.00
2023-05-17T19:42:12.551Z,29.75
2023-05-17T19:44:41.088Z,33.00
2023-05-17T19:47:09.585Z,28.00
2023-05-17T19:49:38.277Z,30.00
2023-05-17T19:52:07.118Z,30.25
2023-05-17T19:54:35.635Z,29.75
2023-05-17T19:57:04.191Z,31.25
2023-05-17T19:59:32.832Z,33.25
2023-05-17T20:02:01.732Z,37.50
2023-05-17T20:04:30.203Z,29.75
2023-05-17T20:06:58.641Z,24.75
2023-05-17T20:09:31.093Z,27.50
2023-05-17T20:12:00.168Z,28.00
2023-05-17T20:14:29.213Z,31.25
2023-05-17T20:16:57.790Z,27.50
2023-05-17T20:19:26.416Z,31.50
2023-05-17T20:21:55.106Z,33.75
2023-05-17T20:24:25.774Z,27.50
2023-05-17T20:26:54.199Z,25.00
2023-05-17T20:29:22.610Z,29.75
2023-05-17T20:31:51.181Z,25.25
2023-05-17T20:34:19.750Z,32.00
2023-05-17T20:36:48.337Z,23.25
2023-05-17T20:39:16.904Z,27.25
2023-05-17T20:41:45.346Z,31.75
2023-05-17T20:44:19.608Z,30.50
2023-05-17T20:46:48.230Z,27.75
2023-05-17T20:49:18.013Z,29.75
2023-05-17T20:51:47.098Z,30.00
2023-05-17T20:54:15.927Z,33.00
2023-05-17T20:56:44.345Z,28.25
2023-05-17T20:59:13.165Z,27.25
2023-05-17T21:01:42.407Z,36.50
2023-05-17T21:04:12.144Z,31.50
2023-05-17T21:06:40.622Z,29.75
2023-05-17T21:09:09.366Z,28.50
2023-05-17T21:11:37.929Z,35.00
2023-05-17T21:14:06.585Z,30.25
2023-05-17T21:16:36.318Z,29.00
2023-05-17T21:19:04.977Z,29.50
2023-05-17T21:21:33.416Z,32.75
2023-05-17T21:24:01.964Z,25.00
2023-05-17T21:26:30.498Z,30.00
2023-05-17T21:28:59.001Z,30.00
2023-05-17T21:31:29.253Z,32.50
2023-05-17T21:33:59.550Z,29.75
2023-05-17T21:36:31.790Z,28.75
2023-05-17T21:39:02.835Z,33.00
2023-05-17T21:41:31.537Z,25.75
2023-05-17T21:44:01.722Z,33.75
2023-05-17T21:46:30.190Z,28.50
2023-05-17T21:49:01.796Z,24.00
2023-05-17T21:51:31.566Z,31.25
2023-05-17T21:54:03.113Z,29.25
2023-05-17T21:56:32.254Z,30.75
2023-05-17T21:59:02.189Z,30.75
2023-05-17T22:01:30.824Z,29.00
2023-05-17T22:04:01.781Z,30.00
2023-05-17T22:06:33.463Z,30.00
2023-05-17T22:09:03.208Z,30.25
2023-05-17T22:11:33.420Z,30.00
2023-05-17T22:14:06.696Z,29.25
2023-05-17T22:16:39.244Z,35.00
2023-05-17T22:19:19.726Z,31.50
2023-05-17T22:21:50.852Z,31.50
2023-05-17T22:24:22.482Z,32.25
2023-05-17T22:26:50.907Z,39.50
2023-05-17T22:29:20.678Z,33.00
2023-05-17T22:31:51.034Z,34.75
2023-05-17T22:34:23.593Z,29.00
2023-05-17T22:36:52.821Z,29.50
2023-05-17T22:39:23.516Z,31.00
2023-05-17T22:41:53.307Z,28.75
2023-05-17T22:44:25.401Z,28.25
2023-05-17T22:46:59.954Z,29.50
2023-05-17T22:49:28.638Z,37.25
2023-05-17T22:51:59.537Z,28.50
2023-05-17T22:54:27.989Z,28.50
2023-05-17T22:56:56.507Z,31.50
2023-05-17T22:59:24.950Z,31.00
2023-05-17T23:01:53.487Z,29.25
2023-05-17T23:04:27.058Z,34.25
2023-05-17T23:06:56.003Z,38.50
2023-05-17T23:09:24.738Z,35.50
2023-05-17T23:11:53.154Z,29.00
2023-05-17T23:14:22.821Z,33.00
2023-05-17T23:16:51.372Z,31.75
2023-05-17T23:19:19.909Z,32.75
2023-05-17T23:21:49.914Z,30.25
2023-05-17T23:24:18.636Z,29.75
2023-05-17T23:26:48.397Z,27.25
2023-05-17T23:29:16.802Z,32.25
2023-05-17T23:31:48.806Z,28.00
2023-05-17T23:34:17.425Z,34.50
2023-05-17T23:36:45.889Z,27.75
2023-05-17T23:39:14.435Z,36.25
2023-05-17T23:41:43.223Z,33.75
2023-05-17T23:44:12.048Z,29.50
2023-05-17T23:46:40.594Z,27.75
2023-05-17T23:49:09.038Z,32.50
2023-05-17T23:51:38.101Z,27.25
2023-05-17T23:54:06.825Z,27.75
2023-05-17T23:56:35.281Z,34.75
2023-05-17T23:59:03.711Z,29.25
